sensor_id;sensor_type;location;lat;lon;timestamp;pressure;altitude;pressure_sealevel;temperature;humidity
65754;BME280;69207;47.502;18.940;2023-05-19T00:00:42;98716.66;;;11.72;100.00
65754;BME280;69207;47.502;18.940;2023-05-19T00:01:52;98720.56;;;11.69;100.00
65754;BME280;69207;47.502;18.940;2023-05-19T00:02:56;98719.84;;;11.69;100.00
65754;BME280;69207;47.502;18.940;2023-05-19T00:04:00;98715.63;;;11.68;100.00
65754;BME280;69207;47.502;18.940;2023-05-19T00:05:07;98714.75;;;11.65;100.00
65754;BME280;69207;47.502;18.940;2023-05-19T00:06:12;98713.63;;;11.68;100.00
65754;BME280;69207;47.502;18.940;2023-05-19T00:07:20;98715.38;;;11.73;100.00
65754;BME280;69207;47.502;18.940;2023-05-19T00:08:30;98713.91;;;11.72;100.00
65754;BME280;69207;47.502;18.940;2023-05-19T00:09:33;98711.16;;;11.72;100.00
65754;BME280;69207;47.502;18.940;2023-05-19T00:10:37;98716.94;;;11.67;100.00
65754;BME280;69207;47.502;18.940;2023-05-19T00:11:40;98712.59;;;11.63;100.00
65754;BME280;69207;47.502;18.940;2023-05-19T00:12:44;98711.84;;;11.63;100.00
65754;BME280;69207;47.502;18.940;2023-05-19T00:13:47;98709.81;;;11.63;100.00
65754;BME280;69207;47.502;18.940;2023-05-19T00:14:51;98713.31;;;11.64;100.00
65754;BME280;69207;47.502;18.940;2023-05-19T00:15:54;98710.25;;;11.60;100.00
65754;BME280;69207;47.502;18.940;2023-05-19T00:16:58;98712.84;;;11.58;100.00
65754;BME280;69207;47.502;18.940;2023-05-19T00:18:03;98708.66;;;11.57;100.00
65754;BME280;69207;47.502;18.940;2023-05-19T00:19:06;98707.94;;;11.56;100.00
65754;BME280;69207;47.502;18.940;2023-05-19T00:20:12;98704.59;;;11.58;100.00
65754;BME280;69207;47.502;18.940;2023-05-19T00:21:16;98701.72;;;11.56;100.00
65754;BME280;69207;47.502;18.940;2023-05-19T00:22:19;98700.25;;;11.55;100.00
65754;BME280;69207;47.502;18.940;2023-05-19T00:23:21;98700.25;;;11.55;100.00
65754;BME280;69207;47.502;18.940;2023-05-19T00:24:24;98704.47;;;11.56;100.00
65754;BME280;69207;47.502;18.940;2023-05-19T00:25:27;98705.00;;;11.54;100.00
65754;BME280;69207;47.502;18.940;2023-05-19T00:26:30;98701.41;;;11.52;100.00
65754;BME280;69207;47.502;18.940;2023-05-19T00:27:33;98708.22;;;11.51;100.00
65754;BME280;69207;47.502;18.940;2023-05-19T00:28:36;98706.75;;;11.50;100.00
65754;BME280;69207;47.502;18.940;2023-05-19T00:29:39;98702.84;;;11.53;100.00
65754;BME280;69207;47.502;18.940;2023-05-19T00:30:42;98701.41;;;11.52;100.00
65754;BME280;69207;47.502;18.940;2023-05-19T00:31:45;98707.75;;;11.54;100.00
65754;BME280;69207;47.502;18.940;2023-05-19T00:32:48;98706.31;;;11.53;100.00
65754;BME280;69207;47.502;18.940;2023-05-19T00:33:51;98705.00;;;11.54;100.00
65754;BME280;69207;47.502;18.940;2023-05-19T00:34:54;98698.78;;;11.54;100.00
65754;BME280;69207;47.502;18.940;2023-05-19T00:35:57;98702.25;;;11.54;100.00
65754;BME280;69207;47.502;18.940;2023-05-19T00:37:00;98700.25;;;11.55;100.00
65754;BME280;69207;47.502;18.940;2023-05-19T00:38:03;98701.72;;;11.56;100.00
65754;BME280;69207;47.502;18.940;2023-05-19T00:39:06;98697.50;;;11.55;100.00
65754;BME280;69207;47.502;18.940;2023-05-19T00:40:09;98696.03;;;11.54;100.00
65754;BME280;69207;47.502;18.940;2023-05-19T00:41:12;98696.19;;;11.56;100.00
65754;BME280;69207;47.502;18.940;2023-05-19T00:42:15;98694.00;;;11.54;100.00
65754;BME280;69207;47.502;18.940;2023-05-19T00:43:18;98696.94;;;11.56;100.00
65754;BME280;69207;47.502;18.940;2023-05-19T00:44:21;98701.84;;;11.58;100.00
65754;BME280;69207;47.502;18.940;2023-05-19T00:45:24;98703.88;;;11.57;100.00
65754;BME280;69207;47.502;18.940;2023-05-19T00:46:27;98694.19;;;11.56;100.00
65754;BME280;69207;47.502;18.940;2023-05-19T00:47:32;98705.31;;;11.58;100.00
65754;BME280;69207;47.502;18.940;2023-05-19T00:48:35;98698.37;;;11.57;100.00
65754;BME280;69207;47.502;18.940;2023-05-19T00:49:38;98697.66;;;11.57;100.00
65754;BME280;69207;47.502;18.940;2023-05-19T00:50:41;98695.47;;;11.55;100.00
65754;BME280;69207;47.502;18.940;2023-05-19T00:51:44;98701.72;;;11.56;100.00
65754;BME280;69207;47.502;18.940;2023-05-19T00:52:47;98705.91;;;11.57;100.00
65754;BME280;69207;47.502;18.940;2023-05-19T00:53:50;98697.66;;;11.57;100.00
65754;BME280;69207;47.502;18.940;2023-05-19T00:54:54;98697.50;;;11.55;100.00
65754;BME280;69207;47.502;18.940;2023-05-19T00:55:58;98700.72;;;11.61;100.00
65754;BME280;69207;47.502;18.940;2023-05-19T00:57:02;98699.25;;;11.60;100.00
65754;BME280;69207;47.502;18.940;2023-05-19T00:58:08;98695.31;;;11.53;100.00
65754;BME280;69207;47.502;18.940;2023-05-19T00:59:12;98693.72;;;11.50;100.00
65754;BME280;69207;47.502;18.940;2023-05-19T01:00:15;98693.00;;;11.50;100.00
65754;BME280;69207;47.502;18.940;2023-05-19T01:01:19;98699.94;;;11.51;100.00
65754;BME280;69207;47.502;18.940;2023-05-19T01:02:23;98693.72;;;11.50;100.00
65754;BME280;69207;47.502;18.940;2023-05-19T01:03:26;98696.31;;;11.48;100.00
65754;BME280;69207;47.502;18.940;2023-05-19T01:04:35;98693.72;;;11.50;100.00
65754;BME280;69207;47.502;18.940;2023-05-19T01:05:40;98693.00;;;11.50;100.00
65754;BME280;69207;47.502;18.940;2023-05-19T01:06:45;98697.78;;;11.49;100.00
65754;BME280;69207;47.502;18.940;2023-05-19T01:07:48;98697.78;;;11.49;100.00
65754;BME280;69207;47.502;18.940;2023-05-19T01:08:55;98697.19;;;11.51;100.00
65754;BME280;69207;47.502;18.940;2023-05-19T01:09:59;98699.06;;;11.48;100.00
65754;BME280;69207;47.502;18.940;2023-05-19T01:11:06;98694.12;;;11.47;100.00
65754;BME280;69207;47.502;18.940;2023-05-19T01:12:09;98694.88;;;11.47;100.00
65754;BME280;69207;47.502;18.940;2023-05-19T01:13:12;98690.81;;;11.48;100.00
65754;BME280;69207;47.502;18.940;2023-05-19T01:14:16;98699.50;;;11.45;100.00
65754;BME280;69207;47.502;18.940;2023-05-19T01:15:21;98693.09;;;11.42;100.00
65754;BME280;69207;47.502;18.940;2023-05-19T01:18:01;98692.25;;;11.40;100.00
65754;BME280;69207;47.502;18.940;2023-05-19T01:19:39;98690.03;;;11.38;100.00
65754;BME280;69207;47.502;18.940;2023-05-19T01:20:54;98697.56;;;11.37;100.00
65754;BME280;69207;47.502;18.940;2023-05-19T01:24:12;98695.41;;;11.36;100.00
65754;BME280;69207;47.502;18.940;2023-05-19T01:29:07;98699.88;;;11.31;100.00
65754;BME280;69207;47.502;18.940;2023-05-19T01:30:25;98694.22;;;11.29;100.00
65754;BME280;69207;47.502;18.940;2023-05-19T01:31:29;98694.22;;;11.29;100.00
65754;BME280;69207;47.502;18.940;2023-05-19T01:32:33;98696.84;;;11.27;100.00
65754;BME280;69207;47.502;18.940;2023-05-19T01:33:40;98690.75;;;11.29;100.00
65754;BME280;69207;47.502;18.940;2023-05-19T01:34:45;98698.28;;;11.28;100.00
65754;BME280;69207;47.502;18.940;2023-05-19T01:35:50;98692.63;;;11.26;100.00
65754;BME280;69207;47.502;18.940;2023-05-19T01:36:57;98700.84;;;11.26;100.00
65754;BME280;69207;47.502;18.940;2023-05-19T01:38:03;98691.59;;;11.22;100.00
65754;BME280;69207;47.502;18.940;2023-05-19T01:39:10;98694.91;;;11.20;100.00
65754;BME280;69207;47.502;18.940;2023-05-19T01:40:13;98700.97;;;11.19;100.00
65754;BME280;69207;47.502;18.940;2023-05-19T01:41:19;98699.53;;;11.18;100.00
65754;BME280;69207;47.502;18.940;2023-05-19T01:42:24;98706.47;;;11.19;100.00
65754;BME280;69207;47.502;18.940;2023-05-19T01:43:29;98692.00;;;11.18;100.00
65754;BME280;69207;47.502;18.940;2023-05-19T01:44:33;98697.19;;;11.14;100.00
65754;BME280;69207;47.502;18.940;2023-05-19T01:45:36;98704.16;;;11.15;100.00
65754;BME280;69207;47.502;18.940;2023-05-19T01:46:39;98700.53;;;11.13;100.00
65754;BME280;69207;47.502;18.940;2023-05-19T01:47:50;98696.47;;;11.14;100.00
65754;BME280;69207;47.502;18.940;2023-05-19T01:48:53;98699.94;;;11.14;100.00
65754;BME280;69207;47.502;18.940;2023-05-19T01:49:57;98700.13;;;11.16;100.00
65754;BME280;69207;47.502;18.940;2023-05-19T01:51:00;98702.88;;;11.16;100.00
65754;BME280;69207;47.502;18.940;2023-05-19T01:52:03;98702.28;;;11.18;100.00
65754;BME280;69207;47.502;18.940;2023-05-19T01:53:07;98700.41;;;11.20;100.00
65754;BME280;69207;47.502;18.940;2023-05-19T01:54:10;98695.63;;;11.21;100.00
65754;BME280;69207;47.502;18.940;2023-05-19T01:55:13;98696.34;;;11.21;100.00
65754;BME280;69207;47.502;18.940;2023-05-19T01:56:21;98695.63;;;11.21;100.00
65754;BME280;69207;47.502;18.940;2023-05-19T01:58:47;98696.63;;;11.16;100.00
65754;BME280;69207;47.502;18.940;2023-05-19T02:02:25;98695.91;;;11.15;100.00
65754;BME280;69207;47.502;18.940;2023-05-19T02:03:43;98695.16;;;11.15;100.00
65754;BME280;69207;47.502;18.940;2023-05-19T02:05:03;98692.59;;;11.17;100.00
65754;BME280;69207;47.502;18.940;2023-05-19T02:06:40;98699.38;;;11.16;100.00
65754;BME280;69207;47.502;18.940;2023-05-19T02:07:50;98697.91;;;11.15;100.00
65754;BME280;69207;47.502;18.940;2023-05-19T02:09:33;98699.38;;;11.16;100.00
65754;BME280;69207;47.502;18.940;2023-05-19T02:10:27;98697.91;;;11.15;100.00
65754;BME280;69207;47.502;18.940;2023-05-19T02:11:41;98695.91;;;11.15;100.00
65754;BME280;69207;47.502;18.940;2023-05-19T02:12:49;98695.75;;;11.13;100.00
65754;BME280;69207;47.502;18.940;2023-05-19T02:13:56;98699.06;;;11.12;100.00
65754;BME280;69207;47.502;18.940;2023-05-19T02:15:06;98694.88;;;11.10;100.00
65754;BME280;69207;47.502;18.940;2023-05-19T02:16:09;98699.50;;;11.08;100.00
65754;BME280;69207;47.502;18.940;2023-05-19T02:17:13;98702.22;;;11.08;100.00
65754;BME280;69207;47.502;18.940;2023-05-19T02:18:18;98704.25;;;11.07;100.00
65754;BME280;69207;47.502;18.940;2023-05-19T02:19:37;98698.63;;;11.05;100.00
65754;BME280;69207;47.502;18.940;2023-05-19T02:20:41;98701.38;;;11.05;100.00
65754;BME280;69207;47.502;18.940;2023-05-19T02:21:44;98694.41;;;11.04;100.00
65754;BME280;69207;47.502;18.940;2023-05-19T02:22:47;98696.59;;;11.06;100.00
65754;BME280;69207;47.502;18.940;2023-05-19T02:23:50;98688.34;;;11.06;100.00
65754;BME280;69207;47.502;18.940;2023-05-19T02:24:53;98690.91;;;11.04;100.00
65754;BME280;69207;47.502;18.940;2023-05-19T02:25:58;98691.50;;;11.02;100.00
65754;BME280;69207;47.502;18.940;2023-05-19T02:27:01;98692.81;;;11.01;100.00
65754;BME280;69207;47.502;18.940;2023-05-19T02:28:04;98694.09;;;11.00;100.00
65754;BME280;69207;47.502;18.940;2023-05-19T02:29:08;98697.56;;;11.01;100.00
65754;BME280;69207;47.502;18.940;2023-05-19T02:30:11;98694.09;;;11.00;100.00
65754;BME280;69207;47.502;18.940;2023-05-19T02:31:14;98696.13;;;11.00;100.00
65754;BME280;69207;47.502;18.940;2023-05-19T02:32:17;98693.53;;;11.02;100.00
65754;BME280;69207;47.502;18.940;2023-05-19T02:33:21;98689.66;;;11.05;100.00
65754;BME280;69207;47.502;18.940;2023-05-19T02:34:26;98689.06;;;11.06;100.00
65754;BME280;69207;47.502;18.940;2023-05-19T02:35:29;98693.66;;;11.04;100.00
65754;BME280;69207;47.502;18.940;2023-05-19T02:36:33;98693.66;;;11.04;100.00
65754;BME280;69207;47.502;18.940;2023-05-19T02:37:38;98699.75;;;11.02;100.00
65754;BME280;69207;47.502;18.940;2023-05-19T02:38:41;98689.34;;;11.01;100.00
65754;BME280;69207;47.502;18.940;2023-05-19T02:39:44;98699.59;;;11.00;100.00
65754;BME280;69207;47.502;18.940;2023-05-19T02:40:47;98690.63;;;11.00;100.00
65754;BME280;69207;47.502;18.940;2023-05-19T02:41:50;98693.53;;;11.02;100.00
65754;BME280;69207;47.502;18.940;2023-05-19T02:42:53;98695.69;;;11.03;100.00
65754;BME280;69207;47.502;18.940;2023-05-19T02:43:56;98691.91;;;10.99;100.00
65754;BME280;69207;47.502;18.940;2023-05-19T02:44:59;98688.28;;;10.96;100.00
65754;BME280;69207;47.502;18.940;2023-05-19T02:46:02;98692.34;;;10.95;100.00
65754;BME280;69207;47.502;18.940;2023-05-19T02:47:05;98688.69;;;10.93;100.00
65754;BME280;69207;47.502;18.940;2023-05-19T02:48:08;98692.75;;;10.92;100.00
65754;BME280;69207;47.502;18.940;2023-05-19T02:49:11;98685.22;;;10.92;100.00
65754;BME280;69207;47.502;18.940;2023-05-19T02:50:14;98689.84;;;10.90;100.00
65754;BME280;69207;47.502;18.940;2023-05-19T02:51:17;98683.06;;;10.91;100.00
65754;BME280;69207;47.502;18.940;2023-05-19T02:52:21;98687.25;;;10.92;100.00
65754;BME280;69207;47.502;18.940;2023-05-19T02:53:24;98677.41;;;10.89;100.00
65754;BME280;69207;47.502;18.940;2023-05-19T02:54:27;98693.91;;;10.89;100.00
65754;BME280;69207;47.502;18.940;2023-05-19T02:55:30;98686.22;;;10.87;100.00
65754;BME280;69207;47.502;18.940;2023-05-19T02:56:33;98690.25;;;10.86;100.00
65754;BME280;69207;47.502;18.940;2023-05-19T02:57:36;98686.06;;;10.85;100.00
65754;BME280;69207;47.502;18.940;2023-05-19T02:58:40;98691.56;;;10.85;100.00
65754;BME280;69207;47.502;18.940;2023-05-19T02:59:44;98695.75;;;10.86;100.00
65754;BME280;69207;47.502;18.940;2023-05-19T03:00:47;98688.97;;;10.87;100.00
65754;BME280;69207;47.502;18.940;2023-05-19T03:01:54;98686.78;;;10.86;100.00
65754;BME280;69207;47.502;18.940;2023-05-19T03:02:57;98694.31;;;10.85;100.00
65754;BME280;69207;47.502;18.940;2023-05-19T03:04:04;98688.09;;;10.84;100.00
65754;BME280;69207;47.502;18.940;2023-05-19T03:05:08;98699.09;;;10.84;100.00
65754;BME280;69207;47.502;18.940;2023-05-19T03:06:12;98696.34;;;10.84;100.00
65754;BME280;69207;47.502;18.940;2023-05-19T03:07:15;98697.78;;;10.86;100.00
65754;BME280;69207;47.502;18.940;2023-05-19T03:08:19;98693.00;;;10.86;100.00
65754;BME280;69207;47.502;18.940;2023-05-19T03:09:22;98695.44;;;10.82;100.00
65754;BME280;69207;47.502;18.940;2023-05-19T03:10:25;98700.06;;;10.79;100.00
65754;BME280;69207;47.502;18.940;2023-05-19T03:11:27;98696.16;;;10.82;100.00
65754;BME280;69207;47.502;18.940;2023-05-19T03:12:32;98700.22;;;10.81;100.00
65754;BME280;69207;47.502;18.940;2023-05-19T03:13:35;98697.47;;;10.81;100.00
65754;BME280;69207;47.502;18.940;2023-05-19T03:14:38;98700.63;;;10.78;100.00
65754;BME280;69207;47.502;18.940;2023-05-19T03:15:41;98699.16;;;10.77;100.00
65754;BME280;69207;47.502;18.940;2023-05-19T03:16:44;98701.75;;;10.75;100.00
65754;BME280;69207;47.502;18.940;2023-05-19T03:17:47;98708.72;;;10.76;100.00
65754;BME280;69207;47.502;18.940;2023-05-19T03:18:50;98699.75;;;10.75;100.00
65754;BME280;69207;47.502;18.940;2023-05-19T03:19:54;98696.84;;;10.73;100.00
65754;BME280;69207;47.502;18.940;2023-05-19T03:20:57;98699.59;;;10.73;100.00
65754;BME280;69207;47.502;18.940;2023-05-19T03:22:03;98707.84;;;10.73;100.00
65754;BME280;69207;47.502;18.940;2023-05-19T03:23:06;98707.97;;;10.75;100.00
65754;BME280;69207;47.502;18.940;2023-05-19T03:24:10;98705.41;;;10.77;100.00
65754;BME280;69207;47.502;18.940;2023-05-19T03:25:13;98705.41;;;10.77;100.00
65754;BME280;69207;47.502;18.940;2023-05-19T03:26:16;98705.97;;;10.76;100.00
65754;BME280;69207;47.502;18.940;2023-05-19T03:27:19;98700.31;;;10.74;100.00
65754;BME280;69207;47.502;18.940;2023-05-19T03:28:22;98709.44;;;10.76;100.00
65754;BME280;69207;47.502;18.940;2023-05-19T03:29:25;98703.38;;;10.78;100.00
65754;BME280;69207;47.502;18.940;2023-05-19T03:30:28;98698.28;;;10.74;100.00
65754;BME280;69207;47.502;18.940;2023-05-19T03:31:31;98702.16;;;10.71;100.00
65754;BME280;69207;47.502;18.940;2023-05-19T03:32:34;98703.47;;;10.70;100.00
65754;BME280;69207;47.502;18.940;2023-05-19T03:33:39;98699.41;;;10.71;100.00
65754;BME280;69207;47.502;18.940;2023-05-19T03:34:42;98702.91;;;10.72;100.00
65754;BME280;69207;47.502;18.940;2023-05-19T03:35:45;98698.88;;;10.73;100.00
65754;BME280;69207;47.502;18.940;2023-05-19T03:36:48;98700.91;;;10.72;100.00
65754;BME280;69207;47.502;18.940;2023-05-19T03:37:51;98698.88;;;10.73;100.00
65754;BME280;69207;47.502;18.940;2023-05-19T03:38:54;98702.50;;;10.75;100.00
65754;BME280;69207;47.502;18.940;2023-05-19T03:39:58;98707.97;;;10.75;100.00
65754;BME280;69207;47.502;18.940;2023-05-19T03:41:01;98699.16;;;10.77;100.00
65754;BME280;69207;47.502;18.940;2023-05-19T03:42:04;98709.44;;;10.76;100.00
65754;BME280;69207;47.502;18.940;2023-05-19T03:43:07;98705.41;;;10.77;100.00
65754;BME280;69207;47.502;18.940;2023-05-19T03:44:10;98706.13;;;10.78;100.00
65754;BME280;69207;47.502;18.940;2023-05-19T03:45:13;98698.03;;;10.80;100.00
65754;BME280;69207;47.502;18.940;2023-05-19T03:46:16;98696.00;;;10.80;100.00
65754;BME280;69207;47.502;18.940;2023-05-19T03:47:19;98698.19;;;10.82;100.00
65754;BME280;69207;47.502;18.940;2023-05-19T03:48:22;98699.66;;;10.83;100.00
65754;BME280;69207;47.502;18.940;2023-05-19T03:49:25;98692.69;;;10.82;100.00
65754;BME280;69207;47.502;18.940;2023-05-19T03:50:28;98696.91;;;10.83;100.00
65754;BME280;69207;47.502;18.940;2023-05-19T03:51:33;98703.13;;;10.83;100.00
65754;BME280;69207;47.502;18.940;2023-05-19T03:52:38;98696.47;;;10.87;100.00
65754;BME280;69207;47.502;18.940;2023-05-19T03:53:41;98693.91;;;10.89;100.00
65754;BME280;69207;47.502;18.940;2023-05-19T03:54:44;98700.41;;;10.93;100.00
65754;BME280;69207;47.502;18.940;2023-05-19T03:55:48;98703.16;;;10.93;100.00
65754;BME280;69207;47.502;18.940;2023-05-19T03:56:51;98698.25;;;10.92;100.00
65754;BME280;69207;47.502;18.940;2023-05-19T03:57:54;98703.75;;;10.92;100.00
65754;BME280;69207;47.502;18.940;2023-05-19T03:58:57;98697.53;;;10.91;100.00
65754;BME280;69207;47.502;18.940;2023-05-19T04:00:01;98705.03;;;10.91;100.00
65754;BME280;69207;47.502;18.940;2023-05-19T04:01:05;98707.94;;;10.93;100.00
65754;BME280;69207;47.502;18.940;2023-05-19T04:02:08;98712.13;;;10.94;100.00
65754;BME280;69207;47.502;18.940;2023-05-19T04:03:11;98706.81;;;10.96;100.00
65754;BME280;69207;47.502;18.940;2023-05-19T04:04:14;98715.22;;;10.98;100.00
65754;BME280;69207;47.502;18.940;2023-05-19T04:05:17;98704.38;;;11.00;100.00
65754;BME280;69207;47.502;18.940;2023-05-19T04:06:20;98706.56;;;11.01;100.00
65754;BME280;69207;47.502;18.940;2023-05-19T04:07:23;98710.03;;;11.02;100.00
65754;BME280;69207;47.502;18.940;2023-05-19T04:08:26;98711.31;;;11.01;100.00
65754;BME280;69207;47.502;18.940;2023-05-19T04:09:29;98708.91;;;11.05;100.00
65754;BME280;69207;47.502;18.940;2023-05-19T04:10:34;98715.97;;;11.08;100.00
65754;BME280;69207;47.502;18.940;2023-05-19T04:11:36;98711.22;;;11.08;100.00
65754;BME280;69207;47.502;18.940;2023-05-19T04:12:41;98716.88;;;11.10;100.00
65754;BME280;69207;47.502;18.940;2023-05-19T04:13:44;98715.00;;;11.13;100.00
65754;BME280;69207;47.502;18.940;2023-05-19T04:14:47;98715.00;;;11.13;100.00
65754;BME280;69207;47.502;18.940;2023-05-19T04:15:50;98713.13;;;11.16;100.00
65754;BME280;69207;47.502;18.940;2023-05-19T04:16:53;98709.22;;;11.19;100.00
65754;BME280;69207;47.502;18.940;2023-05-19T04:17:57;98718.94;;;11.20;100.00
65754;BME280;69207;47.502;18.940;2023-05-19T04:19:00;98718.34;;;11.21;100.00
65754;BME280;69207;47.502;18.940;2023-05-19T04:20:03;98720.69;;;11.25;100.00
65754;BME280;69207;47.502;18.940;2023-05-19T04:21:09;98715.91;;;11.25;100.00
65754;BME280;69207;47.502;18.940;2023-05-19T04:22:12;98716.09;;;11.27;100.00
65754;BME280;69207;47.502;18.940;2023-05-19T04:23:15;98723.03;;;11.28;100.00
65754;BME280;69207;47.502;18.940;2023-05-19T04:24:18;98720.44;;;11.30;100.00
65754;BME280;69207;47.502;18.940;2023-05-19T04:25:21;98729.56;;;11.33;100.00
65754;BME280;69207;47.502;18.940;2023-05-19T04:26:27;98718.72;;;11.35;100.00
65754;BME280;69207;47.502;18.940;2023-05-19T04:27:32;98723.06;;;11.38;100.00
65754;BME280;69207;47.502;18.940;2023-05-19T04:28:38;98725.41;;;11.42;100.00
65754;BME280;69207;47.502;18.940;2023-05-19T04:29:44;98722.78;;;11.44;100.00
65754;BME280;69207;47.502;18.940;2023-05-19T04:30:49;98724.97;;;11.45;100.00
65754;BME280;69207;47.502;18.940;2023-05-19T04:31:53;98721.06;;;11.48;100.00
65754;BME280;69207;47.502;18.940;2023-05-19T04:32:56;98725.44;;;11.51;100.00
65754;BME280;69207;47.502;18.940;2023-05-19T04:34:00;98733.28;;;11.55;100.00
65754;BME280;69207;47.502;18.940;2023-05-19T04:35:03;98728.78;;;11.59;100.00
65754;BME280;69207;47.502;18.940;2023-05-19T04:36:07;98726.34;;;11.63;100.00
65754;BME280;69207;47.502;18.940;2023-05-19T04:37:12;98738.25;;;11.66;100.00
65754;BME280;69207;47.502;18.940;2023-05-19T04:38:15;98735.03;;;11.70;100.00
65754;BME280;69207;47.502;18.940;2023-05-19T04:39:20;98735.94;;;11.72;100.00
65754;BME280;69207;47.502;18.940;2023-05-19T04:40:23;98735.50;;;11.76;100.00
65754;BME280;69207;47.502;18.940;2023-05-19T04:41:26;98738.25;;;11.76;100.00
65754;BME280;69207;47.502;18.940;2023-05-19T04:42:29;98733.94;;;11.82;100.00
65754;BME280;69207;47.502;18.940;2023-05-19T04:43:35;98739.75;;;11.86;100.00
65754;BME280;69207;47.502;18.940;2023-05-19T04:44:38;98748.91;;;11.89;100.00
65754;BME280;69207;47.502;18.940;2023-05-19T04:45:41;98742.09;;;11.90;100.00
65754;BME280;69207;47.502;18.940;2023-05-19T04:46:44;98749.19;;;11.93;100.00
65754;BME280;69207;47.502;18.940;2023-05-19T04:47:47;98735.00;;;11.97;100.00
65754;BME280;69207;47.502;18.940;2023-05-19T04:48:51;98741.38;;;11.99;100.00
65754;BME280;69207;47.502;18.940;2023-05-19T04:49:54;98743.13;;;12.04;100.00
65754;BME280;69207;47.502;18.940;2023-05-19T04:51:02;98751.09;;;12.10;100.00
65754;BME280;69207;47.502;18.940;2023-05-19T04:52:09;98757.63;;;12.14;100.00
65754;BME280;69207;47.502;18.940;2023-05-19T04:53:14;98748.94;;;12.18;100.00
65754;BME280;69207;47.502;18.940;2023-05-19T04:54:17;98754.75;;;12.22;100.00
65754;BME280;69207;47.502;18.940;2023-05-19T04:55:20;98748.97;;;12.28;100.00
65754;BME280;69207;47.502;18.940;2023-05-19T04:56:23;98755.47;;;12.32;100.00
65754;BME280;69207;47.502;18.940;2023-05-19T04:57:25;98754.62;;;12.39;100.00
65754;BME280;69207;47.502;18.940;2023-05-19T04:58:28;98754.91;;;12.43;100.00
65754;BME280;69207;47.502;18.940;2023-05-19T04:59:32;98759.97;;;12.47;100.00
65754;BME280;69207;47.502;18.940;2023-05-19T05:00:37;98754.19;;;12.53;100.00
65754;BME280;69207;47.502;18.940;2023-05-19T05:01:40;98755.78;;;12.56;100.00
65754;BME280;69207;47.502;18.940;2023-05-19T05:02:44;98746.22;;;12.57;100.00
65754;BME280;69207;47.502;18.940;2023-05-19T05:03:48;98748.53;;;12.60;100.00
65754;BME280;69207;47.502;18.940;2023-05-19T05:04:51;98755.62;;;12.63;100.00
65754;BME280;69207;47.502;18.940;2023-05-19T05:05:56;98747.78;;;12.69;100.00
65754;BME280;69207;47.502;18.940;2023-05-19T05:07:00;98743.72;;;12.71;100.00
65754;BME280;69207;47.502;18.940;2023-05-19T05:08:03;98749.09;;;12.78;100.00
65754;BME280;69207;47.502;18.940;2023-05-19T05:09:06;98750.53;;;12.79;100.00
65754;BME280;69207;47.502;18.940;2023-05-19T05:10:09;98750.09;;;12.83;100.00
65754;BME280;69207;47.502;18.940;2023-05-19T05:11:12;98748.34;;;12.87;100.00
65754;BME280;69207;47.502;18.940;2023-05-19T05:12:17;98751.25;;;12.89;100.00
65754;BME280;69207;47.502;18.940;2023-05-19T05:13:21;98753.28;;;12.89;100.00
65754;BME280;69207;47.502;18.940;2023-05-19T05:14:25;98754.72;;;12.90;100.00
65754;BME280;69207;47.502;18.940;2023-05-19T05:15:28;98753.56;;;12.93;100.00
65754;BME280;69207;47.502;18.940;2023-05-19T05:16:32;98758.50;;;12.94;100.00
65754;BME280;69207;47.502;18.940;2023-05-19T05:17:36;98752.41;;;12.96;100.00
65754;BME280;69207;47.502;18.940;2023-05-19T05:18:39;98767.19;;;13.01;100.00
65754;BME280;69207;47.502;18.940;2023-05-19T05:19:46;98758.19;;;13.00;100.00
65754;BME280;69207;47.502;18.940;2023-05-19T05:20:50;98756.47;;;13.05;100.00
65754;BME280;69207;47.502;18.940;2023-05-19T05:21:53;98758.75;;;13.08;100.00
65754;BME280;69207;47.502;18.940;2023-05-19T05:22:56;98762.53;;;13.13;100.00
65754;BME280;69207;47.502;18.940;2023-05-19T05:24:00;98767.44;;;13.14;100.00
65754;BME280;69207;47.502;18.940;2023-05-19T05:25:03;98769.19;;;13.19;100.00
65754;BME280;69207;47.502;18.940;2023-05-19T05:26:12;98764.38;;;13.20;100.00
65754;BME280;69207;47.502;18.940;2023-05-19T05:27:18;98776.91;;;13.21;100.00
65754;BME280;69207;47.502;18.940;2023-05-19T05:28:21;98769.38;;;13.22;100.00
65754;BME280;69207;47.502;18.940;2023-05-19T05:29:25;98770.22;;;13.24;100.00
65754;BME280;69207;47.502;18.940;2023-05-19T05:30:28;98769.62;;;13.26;100.00
65754;BME280;69207;47.502;18.940;2023-05-19T05:31:31;98775.31;;;13.28;100.00
65754;BME280;69207;47.502;18.940;2023-05-19T05:32:34;98764.25;;;13.28;100.00
65754;BME280;69207;47.502;18.940;2023-05-19T05:33:38;98769.19;;;13.29;100.00
65754;BME280;69207;47.502;18.940;2023-05-19T05:34:41;98769.47;;;13.33;100.00
65754;BME280;69207;47.502;18.940;2023-05-19T05:35:44;98760.16;;;13.38;100.00
65754;BME280;69207;47.502;18.940;2023-05-19T05:36:48;98761.72;;;13.41;100.00
65754;BME280;69207;47.502;18.940;2023-05-19T05:37:51;98770.16;;;13.43;100.00
65754;BME280;69207;47.502;18.940;2023-05-19T05:38:54;98766.81;;;13.45;100.00
65754;BME280;69207;47.502;18.940;2023-05-19T05:39:57;98765.94;;;13.42;100.00
65754;BME280;69207;47.502;18.940;2023-05-19T05:41:00;98770.16;;;13.43;100.00
65754;BME280;69207;47.502;18.940;2023-05-19T05:42:04;98770.28;;;13.45;100.00
65754;BME280;69207;47.502;18.940;2023-05-19T05:43:07;98764.59;;;13.53;100.00
65754;BME280;69207;47.502;18.940;2023-05-19T05:44:11;98771.00;;;13.56;100.00